首页
METAR-TAF:

METAR-TAF

机场 :

阿塔蒂尔克国际机场

伊斯坦布尔 阿塔土克, 土耳其

纬度: 40-58N, 经度: 028-49E, 海拔: 48米

当前天气观测

该预报发布于15分钟前的09:20 UTC
风速14节,风向东转东北,在北转东北之间变化
温度 33°C
湿度 34%
气压 1013 hPa
能见度10公里或以上
1500米以下无云,无积雨云

METAR: LTBA 190920Z 06014KT 020V100 CAVOK 33/15 Q1013 NOSIG RMK RWY17L 05015G27KT RWY05 04016KT RWY23 06016G26KT 020V090

时间: 12:35 (09:35 UTC)

预报

该预报发布于4小时和55分钟前的04:40 UTC
预报有效从19日的 06点(UTC)到 20日的 12点(UTC)
风速14节,风向北转东北
能见度10公里或以上
1500米以下无云,无积雨云
成为
从 19日的 07点(UTC)到 19日的 09点(UTC)
风速16节,风向北转东北,有时为28节阵风
少量云层高于3300英尺
成为
从 19日的 12点(UTC)到 19日的 15点(UTC)
能见度10公里或以上
1500米以下无云,无积雨云
成为
从 19日的 17点(UTC)到 19日的 20点(UTC)
风速12节,风向北转东北
成为
从 19日的 22点(UTC)到 20日的 01点(UTC)
少量云层高于3300英尺
成为
从 20日的 08点(UTC)到 20日的 11点(UTC)
风速15节,风向北转东北,有时为27节阵风
能见度10公里或以上
1500米以下无云,无积雨云

TAF: LTBA 190440Z 1906/2012 03014KT CAVOK BECMG 1907/1909 03016G28KT FEW033 BECMG 1912/1915 CAVOK BECMG 1917/1920 03012KT BECMG 1922/2001 FEW033 BECMG 2008/2011 03015G27KT CAVOK

超过4000个机场的气象观测和天气预报(METAR&TAF报告)。

可查询的气象台以黄色和红色小点在地图上表示。

将鼠标移到小点上方,可查看气象台名称。

然后点击查看天气观测和预报。

如需切换地图:点击带黑十字的绿色按钮放大地图;点击带横线的绿色按钮缩小地图;或者点击绿色箭头查看邻近地区的地图。


METAR-TAF: